»·PEaware :: SWA258 KLAS-KSAN

SWA258 :: KLAS-KSAN

FLIGHT INFORMATION

Flight Status: Arrived
Operator:
Southwest Airlines
More flights by this operator :: More flights under this callsign
Pilot: Brad M. (22842)
Aircraft: BOEING 737-700
(B737)
More flights by this aircraft type
Origin: KLAS McCarran Intl
United States
Destination: KSAN San Diego Intl-Lindbergh
United States
More flights between these airports :: More routes between these airports
Route: BOACH8 LVELL LUCKI1
File this flight plan on PilotEdge
Remarks:
Altitude:
(Current/Filed)
32,000ft
Speed:
(Current/Filed)
427kts
Departed: 29-Aug-19 06:43 PM
Arrived: 29-Aug-19 07:25 PM
Distance/Time
Traveled:
225nm/0:42
Distance/Time
To Go:
Arrived

Flight Plot

Page will automatically refresh every two minutes.

Flight plan parsing failed; only flown route is shown


Map Options




Map Legend


Flown Route
Filed Route
Departure Airport
Arrival Airport
Navaid (VOR, NDB)
Fix

Horizontal Profiles

Position Reports

Time Latitude Longitude Heading Altitude Ground
Speed
29-Aug-19 18:20 36.080898 -115.145915 253 2188ft 0kts
29-Aug-19 18:21 36.080898 -115.145915 253 2188ft 0kts
29-Aug-19 18:22 36.080898 -115.145915 253 2188ft 0kts
29-Aug-19 18:23 36.080898 -115.145915 253 2188ft 0kts
29-Aug-19 18:24 36.080898 -115.145915 253 2189ft 0kts
29-Aug-19 18:25 36.080898 -115.145915 253 2189ft 0kts
29-Aug-19 18:26 36.080898 -115.145915 253 2189ft 0kts
29-Aug-19 18:27 36.080898 -115.145915 253 2189ft 0kts
29-Aug-19 18:28 36.080898 -115.145915 253 2189ft 0kts
29-Aug-19 18:29 36.080898 -115.145915 253 2189ft 0kts
29-Aug-19 18:30 36.080898 -115.145915 253 2189ft 0kts
29-Aug-19 18:31 36.081041 -115.145365 231 2189ft 2kts
29-Aug-19 18:32 36.081391 -115.145247 155 2189ft 0kts
29-Aug-19 18:33 36.081391 -115.145247 155 2189ft 0kts
29-Aug-19 18:34 36.081391 -115.145247 155 2189ft 0kts
29-Aug-19 18:35 36.078741 -115.144834 169 2189ft 9kts
29-Aug-19 18:36 36.078266 -115.140690 90 2188ft 9kts
29-Aug-19 18:37 36.078268 -115.135924 89 2189ft 14kts
29-Aug-19 18:38 36.078293 -115.129971 90 2189ft 15kts
29-Aug-19 18:39 36.078281 -115.124381 90 2189ft 20kts
29-Aug-19 18:40 36.077428 -115.121393 131 2189ft 0kts
29-Aug-19 18:41 36.076662 -115.121217 180 2188ft 12kts
29-Aug-19 18:43 36.076407 -115.141312 270 2215ft 149kts
29-Aug-19 18:44 36.082134 -115.202718 270 4183ft 189kts
29-Aug-19 18:45 36.058440 -115.264218 206 5597ft 240kts
29-Aug-19 18:46 35.988488 -115.293090 202 7041ft 284kts
29-Aug-19 18:47 35.911071 -115.309019 186 9398ft 287kts
29-Aug-19 18:48 35.826864 -115.312457 176 11722ft 333kts
29-Aug-19 18:49 35.724730 -115.300015 176 13049ft 396kts
29-Aug-19 18:50 35.612423 -115.296821 184 15535ft 410kts
29-Aug-19 18:51 35.496326 -115.301879 183 17731ft 425kts
29-Aug-19 18:52 35.375892 -115.306623 183 19645ft 439kts
29-Aug-19 18:53 35.252085 -115.311488 183 21282ft 452kts
29-Aug-19 18:54 35.124801 -115.316506 183 22672ft 463kts
29-Aug-19 18:55 34.994496 -115.321624 182 23858ft 473kts
29-Aug-19 18:56 34.861604 -115.326816 182 24880ft 481kts
29-Aug-19 18:57 34.729465 -115.352895 199 25814ft 487kts
29-Aug-19 18:58 34.601198 -115.409429 201 26667ft 493kts
29-Aug-19 18:59 34.471834 -115.466090 200 27666ft 494kts
29-Aug-19 19:00 34.342829 -115.522861 203 28949ft 491kts
29-Aug-19 19:01 34.224901 -115.603544 210 30391ft 485kts
29-Aug-19 19:02 34.100727 -115.666857 202 31866ft 483kts
29-Aug-19 19:02 33.996751 -115.715669 202 31907ft 481kts
29-Aug-19 19:04 33.851695 -115.785279 203 31878ft 481kts
29-Aug-19 19:04 33.748093 -115.835751 202 31270ft 482kts
29-Aug-19 19:05 33.622681 -115.894285 202 29684ft 480kts
29-Aug-19 19:07 33.490298 -115.989853 231 24954ft 479kts
29-Aug-19 19:07 33.425588 -116.098599 235 22995ft 478kts
29-Aug-19 19:08 33.349156 -116.225272 227 20677ft 460kts
29-Aug-19 19:09 33.245042 -116.304919 206 18412ft 425kts
29-Aug-19 19:10 33.143421 -116.363842 206 16443ft 389kts
29-Aug-19 19:11 33.049642 -116.418469 206 14625ft 363kts
29-Aug-19 19:12 32.968455 -116.480422 221 13087ft 331kts
29-Aug-19 19:13 32.900732 -116.549882 221 11419ft 310kts
29-Aug-19 19:14 32.836615 -116.614489 221 9932ft 292kts
29-Aug-19 19:15 32.777030 -116.676677 230 8486ft 278kts
29-Aug-19 19:16 32.737870 -116.754040 241 7113ft 268kts
29-Aug-19 19:17 32.703391 -116.830123 248 5801ft 255kts
29-Aug-19 19:18 32.680240 -116.906860 251 4679ft 235kts
29-Aug-19 19:19 32.681339 -116.975012 286 3943ft 179kts
29-Aug-19 19:20 32.694547 -117.028848 286 2855ft 163kts
29-Aug-19 19:21 32.706360 -117.079373 287 2047ft 155kts
29-Aug-19 19:22 32.718561 -117.127886 287 1088ft 146kts
29-Aug-19 19:23 32.729644 -117.173555 286 177ft 140kts
29-Aug-19 19:24 32.735162 -117.198077 251 23ft 15kts
29-Aug-19 19:25 32.734865 -117.199167 245 23ft 0kts
29-Aug-19 19:26 32.734494 -117.199583 203 23ft 3kts
29-Aug-19 19:27 32.733508 -117.200197 263 23ft 1kts
29-Aug-19 19:28 32.733469 -117.200563 262 23ft 0kts
29-Aug-19 19:29 32.733469 -117.200563 262 23ft 0kts
29-Aug-19 19:30 32.733469 -117.200563 262 23ft 0kts

Navigation Log

Ident Type
Flight plan parsing failed, navigation log unavailable